Time;durP1;ratioP1;P1;durP2;ratioP2;P2;SDS_P1;SDS_P2;PMS_P1;PMS_P2;Temp;Humidity;BMP_temperature;BMP_pressure;BME280_temperature;BME280_humidity;BME280_pressure;Samples;Min_cycle;Max_cycle;Signal;HPM_P1;HPM_P2
2023/11/12 00:00:56;;;;;;;0.95;0.80;;;230.40;2252.80;;;;;;5062899;28;20472;-81
2023/11/12 00:03:22;;;;;;;1.15;1.05;;;230.40;2252.80;;;;;;5064075;28;20078;-81
2023/11/12 00:05:51;;;;;;;0.90;0.80;;;205.60;2252.80;;;;;;5044366;28;20484;-81
2023/11/12 00:08:20;;;;;;;1.13;1.00;;;205.20;2252.80;;;;;;5046412;28;20075;-82
2023/11/12 00:10:47;;;;;;;1.10;0.95;;;205.60;2252.80;;;;;;5045683;28;20021;-80
2023/11/12 00:13:13;;;;;;;1.25;1.00;;;205.60;2252.80;;;;;;5045662;28;20051;-80
2023/11/12 00:15:40;;;;;;;1.30;0.93;;;205.60;2252.80;;;;;;5046494;28;20029;-82
2023/11/12 00:18:47;;;;;;;0.93;0.82;;;205.60;2252.80;;;;;;5051868;28;20097;-89
2023/11/12 00:25:58;;;;;;;0.80;0.80;;;205.70;2252.80;;;;;;4859408;29;20041;-88
2023/11/12 00:28:56;;;;;;;1.52;0.77;;;205.60;2252.80;;;;;;4839217;29;20134;-89
2023/11/12 00:38:38;;;;;;;1.55;1.00;;;205.40;2252.80;;;;;;4803661;30;20134;-87
2023/11/12 00:41:05;;;;;;;1.17;1.08;;;205.40;2252.80;;;;;;4801960;29;20099;-87
2023/11/12 00:43:32;;;;;;;2.85;0.95;;;205.20;2252.80;;;;;;4801058;29;20153;-88
2023/11/12 00:46:01;;;;;;;1.00;0.90;;;;;;;;;;4801492;29;20039;-89
2023/11/12 00:48:27;;;;;;;2.00;1.77;;;;;;;;;;4786223;30;20027;-86
2023/11/12 00:50:54;;;;;;;1.75;1.17;;;;;;;;;;4794077;29;20070;-83
2023/11/12 00:53:20;;;;;;;0.75;0.70;;;205.10;2252.80;;;;;;4840523;29;20065;-86
2023/11/12 00:55:46;;;;;;;1.27;1.00;;;204.80;2252.80;;;;;;4826819;29;20081;-83
2023/11/12 00:58:12;;;;;;;0.90;0.80;;;205.10;2252.80;;;;;;4872677;29;20033;-82
2023/11/12 01:03:48;;;;;;;0.73;0.73;;;;;;;;;;4934693;29;20058;-84
2023/11/12 01:06:15;;;;;;;0.80;0.80;;;;;;;;;;4916381;29;20056;-85
2023/11/12 01:08:41;;;;;;;0.70;0.70;;;;;;;;;;4945950;29;20046;-85
2023/11/12 01:11:13;;;;;;;0.88;0.80;;;;;;;;;;4967724;28;20034;-88
2023/11/12 01:14:10;;;;;;;0.85;0.80;;;;;;;;;;4980503;28;20630;-88
2023/11/12 01:16:56;;;;;;;1.55;1.45;;;;;;;;;;4973172;29;20042;-84
2023/11/12 01:19:22;;;;;;;1.23;1.13;;;;;;;;;;4968471;29;20027;-84
2023/11/12 01:21:49;;;;;;;0.90;0.82;;;;;;;;;;4965404;29;20134;-80
2023/11/12 01:24:16;;;;;;;0.90;0.80;;;;;;;;;;4969073;28;20396;-81
2023/11/12 01:26:43;;;;;;;1.00;0.80;;;;;;;;;;4968708;28;20039;-83
2023/11/12 01:29:10;;;;;;;1.50;1.00;;;;;;;;;;4971346;28;20087;-84
2023/11/12 07:58:00;;;;;;;0.75;0.73;;;;;;;;;;5071622;28;20047;-87
2023/11/12 08:16:12;;;;;;;1.80;1.52;;;;;;;;;;5077074;28;20031;-90
2023/11/12 09:32:29;;;;;;;0.80;0.77;;;;;;;;;;5067325;28;20398;-85
2023/11/12 09:34:56;;;;;;;0.60;0.60;;;;;;;;;;5042650;28;20021;-85
2023/11/12 09:37:22;;;;;;;0.70;0.70;;;;;;;;;;5030149;28;20079;-82
2023/11/12 09:39:48;;;;;;;0.75;0.75;;;;;;;;;;5033998;28;20030;-82
2023/11/12 09:42:17;;;;;;;1.00;0.90;;;;;;;;;;5020091;28;20037;-80
2023/11/12 09:44:45;;;;;;;0.70;0.70;;;;;;;;;;5053772;28;20032;-81
2023/11/12 09:47:13;;;;;;;1.98;1.10;;;;;;;;;;5078773;28;20024;-82
2023/11/12 09:49:40;;;;;;;0.80;0.80;;;;;;;;;;5060250;28;20479;-82
2023/11/12 09:52:06;;;;;;;1.40;1.15;;;;;;;;;;5044304;28;20067;-84
2023/11/12 09:54:35;;;;;;;0.80;0.75;;;;;;;;;;5041269;28;20025;-82
2023/11/12 09:57:02;;;;;;;1.27;1.15;;;;;;;;;;5043497;28;20033;-86
2023/11/12 09:59:47;;;;;;;1.10;1.00;;;;;;;;;;5044424;28;20027;-88
2023/11/12 10:03:12;;;;;;;1.30;1.00;;;;;;;;;;5017711;28;20046;-84
2023/11/12 10:06:00;;;;;;;0.85;0.80;;;;;;;;;;4998914;28;20038;-86
2023/11/12 10:08:26;;;;;;;0.80;0.70;;;;;;;;;;4998235;28;20034;-86
2023/11/12 10:11:28;;;;;;;0.75;0.70;;;;;;;;;;5000300;28;20026;-87
2023/11/12 10:14:47;;;;;;;1.20;0.90;;;;;;;;;;4963145;28;20086;-86
2023/11/12 10:17:22;;;;;;;0.60;0.60;;;;;;;;;;4960085;29;20585;-85
2023/11/12 10:20:09;;;;;;;1.10;0.90;;;;;;;;;;4959708;28;20075;-86
2023/11/12 10:22:39;;;;;;;0.52;0.52;;;;;;;;;;4957803;29;20522;-86
2023/11/12 10:25:06;;;;;;;0.93;0.90;;;;;;;;;;4960117;28;20043;-84
2023/11/12 10:27:32;;;;;;;1.48;0.85;;;;;;;;;;4959828;28;20131;-85
2023/11/12 10:30:18;;;;;;;0.95;0.80;;;;;;;;;;4960537;28;20055;-85
2023/11/12 10:32:44;;;;;;;1.10;0.90;;;;;;;;;;4958472;28;20043;-83
2023/11/12 10:35:10;;;;;;;1.52;1.00;;;;;;;;;;4958607;28;20027;-83
2023/11/12 10:37:55;;;;;;;0.98;0.80;;;;;;;;;;4960203;28;20039;-86
2023/11/12 10:40:21;;;;;;;1.20;0.88;;;;;;;;;;4942474;29;20035;-85
2023/11/12 10:42:47;;;;;;;0.82;0.80;;;;;;;;;;4941928;29;20129;-85
2023/11/12 10:45:16;;;;;;;0.80;0.70;;;;;;;;;;4956124;29;20142;-84
2023/11/12 10:47:43;;;;;;;0.82;0.70;;;;;;;;;;4939169;28;20047;-85
2023/11/12 10:50:09;;;;;;;1.42;1.00;;;;;;;;;;4991226;28;20100;-82
2023/11/12 10:52:36;;;;;;;1.67;1.13;;;;;;;;;;5018477;28;20555;-84
2023/11/12 10:55:05;;;;;;;1.27;1.15;;;;;;;;;;5020457;28;20038;-83
2023/11/12 10:57:31;;;;;;;1.63;0.90;;;;;;;;;;5023688;28;20025;-86
2023/11/12 11:00:03;;;;;;;1.15;0.95;;;281.80;2278.40;;;;;;5025050;28;20409;-83
2023/11/12 11:02:32;;;;;;;1.00;0.90;;;281.80;2278.40;;;;;;5029963;28;20029;-86
2023/11/12 11:05:01;;;;;;;0.65;0.65;;;281.80;2278.40;;;;;;5042875;28;20018;-84
2023/11/12 11:07:27;;;;;;;0.80;0.70;;;281.80;2278.40;;;;;;5026366;28;20030;-85
2023/11/12 11:09:53;;;;;;;1.67;1.05;;;281.80;2278.40;;;;;;5028887;28;20036;-84
2023/11/12 11:12:20;;;;;;;1.55;1.15;;;281.90;2278.40;;;;;;5026632;28;20022;-82
2023/11/12 11:14:46;;;;;;;1.50;1.00;;;281.90;2278.40;;;;;;5022564;28;20033;-85
2023/11/12 11:17:36;;;;;;;1.52;1.13;;;282.00;2278.40;;;;;;5022266;28;20026;-81
2023/11/12 11:20:04;;;;;;;1.30;0.98;;;282.10;2278.40;;;;;;5022995;28;20028;-84
2023/11/12 11:22:32;;;;;;;2.45;1.17;;;282.10;2278.40;;;;;;5023054;28;20371;-82
2023/11/12 11:24:59;;;;;;;1.10;0.80;;;282.10;2278.40;;;;;;5022672;28;20061;-84
2023/11/12 11:27:26;;;;;;;1.95;1.38;;;282.10;2278.40;;;;;;5025398;28;20045;-85
2023/11/12 11:30:09;;;;;;;1.55;1.13;;;282.10;2278.40;;;;;;5051174;28;20029;-84
2023/11/12 11:32:36;;;;;;;0.77;0.70;;;282.10;2278.40;;;;;;5064710;28;20029;-85
2023/11/12 11:35:17;;;;;;;0.68;0.68;;;282.10;2278.40;;;;;;5044892;28;20021;-81
2023/11/12 11:38:09;;;;;;;0.80;0.70;;;282.10;2278.40;;;;;;5047783;28;20029;-85
2023/11/12 11:40:38;;;;;;;1.50;0.93;;;282.10;2278.40;;;;;;5045401;28;20435;-84
2023/11/12 11:43:53;;;;;;;1.10;0.80;;;282.10;2278.40;;;;;;5045358;28;20100;-83
2023/11/12 11:46:28;;;;;;;1.38;1.27;;;282.10;2278.40;;;;;;4982517;28;20062;-86
2023/11/12 11:48:55;;;;;;;1.73;1.25;;;282.10;2278.40;;;;;;4963266;29;20130;-82
2023/11/12 11:51:28;;;;;;;1.10;0.80;;;282.10;2278.40;;;;;;4963998;29;20561;-82
2023/11/12 11:54:47;;;;;;;1.20;1.10;;;282.10;2278.40;;;;;;4963145;29;20156;-86
2023/11/12 12:11:18;;;;;;;0.55;0.55;;;282.00;2278.40;;;;;;4888282;29;20124;-85
2023/11/12 12:14:26;;;;;;;1.20;0.90;;;281.90;2278.40;;;;;;4886204;29;20613;-84
2023/11/12 12:17:25;;;;;;;0.80;0.75;;;281.90;2278.40;;;;;;4887653;29;20045;-86
2023/11/12 12:20:11;;;;;;;1.23;1.10;;;281.90;2278.40;;;;;;4880333;29;20044;-87
2023/11/12 12:23:00;;;;;;;1.10;0.90;;;281.90;2278.40;;;;;;4871969;29;20048;-86
2023/11/12 12:26:27;;;;;;;0.98;0.80;;;281.90;2278.40;;;;;;4856768;29;20025;-86
2023/11/12 12:29:39;;;;;;;1.25;1.10;;;281.90;2278.40;;;;;;4870181;29;20037;-86
2023/11/12 12:33:11;;;;;;;1.50;1.30;;;281.80;2278.40;;;;;;4803257;29;20534;-85
2023/11/12 12:35:58;;;;;;;1.48;0.90;;;281.90;2278.40;;;;;;4780357;30;20035;-86
2023/11/12 12:39:04;;;;;;;0.73;0.70;;;281.80;2278.40;;;;;;4708383;30;20526;-86
2023/11/12 12:45:30;;;;;;;3.05;1.27;;;281.80;2278.40;;;;;;4643581;31;20050;-86
2023/11/12 12:48:56;;;;;;;2.55;1.05;;;281.80;2278.40;;;;;;4542527;31;20046;-87
2023/11/12 12:52:20;;;;;;;0.68;0.65;;;281.90;2278.40;;;;;;4554945;31;20434;-87
2023/11/12 12:55:06;;;;;;;;;;;281.90;2278.40;;;;;;4530814;31;20110;-83
2023/11/12 12:57:33;;;;;;;1.67;0.98;;;281.90;2278.40;;;;;;4527774;31;19911;-87
2023/11/12 13:00:00;;;;;;;1.25;0.90;;;281.90;2278.40;;;;;;4510839;31;20514;-83
2023/11/12 13:02:28;;;;;;;1.45;1.02;;;281.90;2278.40;;;;;;4534434;31;20127;-83
2023/11/12 13:04:54;;;;;;;1.95;1.35;;;281.90;2278.40;;;;;;4588359;31;20068;-81
2023/11/12 13:07:21;;;;;;;1.20;1.00;;;282.00;2278.40;;;;;;4604249;31;20423;-84
2023/11/12 13:09:49;;;;;;;1.40;1.20;;;282.00;2278.40;;;;;;4613795;31;20052;-85
2023/11/12 13:12:15;;;;;;;1.10;0.80;;;282.00;2278.40;;;;;;4628468;30;20050;-84
2023/11/12 13:14:42;;;;;;;0.82;0.77;;;282.00;2278.40;;;;;;4659401;30;20050;-85
2023/11/12 13:17:08;;;;;;;0.70;0.63;;;282.10;2278.40;;;;;;4732153;30;20068;-80
2023/11/12 13:19:35;;;;;;;0.88;0.80;;;282.00;2278.40;;;;;;4738653;30;20048;-83
2023/11/12 13:22:00;;;;;;;0.95;0.80;;;282.00;2278.40;;;;;;4728648;30;20041;-82
2023/11/12 13:24:28;;;;;;;1.20;0.90;;;282.00;2278.40;;;;;;4791702;29;20049;-82
2023/11/12 13:26:56;;;;;;;0.95;0.80;;;282.10;2278.40;;;;;;4898827;29;20067;-84
2023/11/12 13:29:22;;;;;;;1.48;1.20;;;282.00;2278.40;;;;;;4929541;29;20043;-85
2023/11/12 13:31:49;;;;;;;1.77;1.15;;;282.00;2278.40;;;;;;4947972;29;20081;-88
2023/11/12 13:34:16;;;;;;;2.45;1.05;;;282.00;2278.40;;;;;;4953414;29;20047;-83
2023/11/12 13:36:42;;;;;;;1.33;1.20;;;282.10;2278.40;;;;;;4946057;29;20027;-87
2023/11/12 13:39:09;;;;;;;3.10;2.17;;;282.10;2278.40;;;;;;4991653;28;20532;-85
2023/11/12 13:41:37;;;;;;;1.60;1.15;;;282.10;2278.40;;;;;;5010578;28;20021;-85
2023/11/12 13:44:05;;;;;;;2.58;1.50;;;282.10;2278.40;;;;;;5045691;28;20030;-84
2023/11/12 13:46:32;;;;;;;2.05;1.27;;;282.10;2278.40;;;;;;5027662;28;20025;-85
2023/11/12 13:49:01;;;;;;;1.55;1.00;;;282.00;2278.40;;;;;;5028003;28;20022;-85
2023/11/12 13:51:41;;;;;;;0.70;0.70;;;282.00;2278.40;;;;;;5011726;28;20035;-83
2023/11/12 13:54:10;;;;;;;1.40;0.93;;;282.00;2278.40;;;;;;5025586;28;20026;-86
2023/11/12 13:56:37;;;;;;;1.58;0.93;;;282.00;2278.40;;;;;;5027143;28;20021;-81
2023/11/12 13:59:05;;;;;;;1.38;0.90;;;282.00;2278.40;;;;;;5019345;28;20032;-83
2023/11/12 14:01:32;;;;;;;1.35;0.98;;;282.00;2278.40;;;;;;5009734;28;20489;-85
2023/11/12 14:03:58;;;;;;;1.33;1.05;;;282.00;2278.40;;;;;;5008734;28;20023;-83
2023/11/12 14:06:24;;;;;;;1.17;0.82;;;282.00;2278.40;;;;;;5016620;28;20049;-84
2023/11/12 14:08:49;;;;;;;1.42;1.15;;;282.00;2278.40;;;;;;5023615;28;20028;-86
2023/11/12 14:11:32;;;;;;;7.55;1.95;;;282.20;2278.40;;;;;;5119168;27;20401;-84
2023/11/12 14:14:00;;;;;;;2.58;1.20;;;282.10;2278.40;;;;;;5134690;28;20027;-83
2023/11/12 14:16:26;;;;;;;1.77;1.42;;;282.10;2278.40;;;;;;5136189;28;20079;-85
2023/11/12 14:18:53;;;;;;;2.58;1.20;;;282.00;2278.40;;;;;;5136220;28;20032;-82
2023/11/12 14:21:20;;;;;;;1.73;1.27;;;282.00;2278.40;;;;;;5140233;28;20039;-82
2023/11/12 14:23:46;;;;;;;2.08;1.40;;;282.00;2278.40;;;;;;5144065;28;20043;-84
2023/11/12 14:26:37;;;;;;;2.13;1.27;;;282.10;2278.40;;;;;;5148232;28;20039;-88
2023/11/12 14:29:22;;;;;;;1.52;1.33;;;282.10;2278.40;;;;;;5105631;28;20032;-88
2023/11/12 14:31:53;;;;;;;5.55;2.55;;;282.10;2278.40;;;;;;5047508;28;20048;-86
2023/11/12 14:34:23;;;;;;;1.75;1.60;;;282.00;2278.40;;;;;;5088849;28;20028;-87
2023/11/12 14:36:52;;;;;;;4.65;1.88;;;282.00;2278.40;;;;;;5089275;28;20063;-85
2023/11/12 14:39:18;;;;;;;1.50;1.10;;;281.90;2278.40;;;;;;5086221;28;20025;-85
2023/11/12 14:41:45;;;;;;;1.58;1.13;;;281.90;2278.40;;;;;;5102446;28;20025;-85
2023/11/12 14:44:11;;;;;;;4.57;1.70;;;282.00;2278.40;;;;;;5093024;28;20498;-86
2023/11/12 14:46:38;;;;;;;3.47;1.48;;;281.80;2278.40;;;;;;5105576;28;20041;-87
2023/11/12 14:49:08;;;;;;;1.17;1.05;;;281.80;2278.40;;;;;;5080027;28;20074;-86
2023/11/12 14:51:41;;;;;;;1.05;0.93;;;281.80;2278.40;;;;;;5097115;28;20028;-84
2023/11/12 14:58:15;;;;;;;1.33;1.23;;;281.80;2278.40;;;;;;5042348;28;20029;-88
2023/11/12 15:01:31;;;;;;;1.50;1.02;;;281.80;2278.40;;;;;;5009937;28;20410;-89
2023/11/12 15:04:13;;;;;;;1.85;1.27;;;281.80;2278.40;;;;;;4980992;28;20045;-86
2023/11/12 15:14:54;;;;;;;0.52;0.50;;;281.80;2278.40;;;;;;4984091;28;20069;-88
2023/11/12 15:17:33;;;;;;;2.67;1.40;;;281.70;2278.40;;;;;;4984372;28;20122;-88
2023/11/12 15:20:23;;;;;;;2.10;1.85;;;281.70;2278.40;;;;;;4982664;28;20069;-86
2023/11/12 15:22:49;;;;;;;5.13;1.35;;;281.70;2278.40;;;;;;4951542;29;20043;-85
2023/11/12 15:25:15;;;;;;;2.25;1.55;;;281.70;2278.40;;;;;;4950395;29;20039;-85
2023/11/12 15:27:45;;;;;;;2.15;1.38;;;281.70;2278.40;;;;;;4950491;29;20077;-85
2023/11/12 15:30:12;;;;;;;0.75;0.70;;;281.60;2278.40;;;;;;4950430;29;20036;-86
2023/11/12 15:33:22;;;;;;;1.05;0.90;;;281.60;2278.40;;;;;;4955256;28;20094;-86
2023/11/12 15:35:50;;;;;;;1.77;1.00;;;281.60;2278.40;;;;;;5028584;28;20037;-84
2023/11/12 15:38:17;;;;;;;1.25;0.98;;;281.70;2278.40;;;;;;5046053;28;20021;-84
2023/11/12 15:40:44;;;;;;;6.65;1.20;;;281.60;2278.40;;;;;;5046006;28;20037;-85
2023/11/12 15:43:11;;;;;;;2.33;1.98;;;281.60;2278.40;;;;;;5047805;28;20025;-87
2023/11/12 15:45:38;;;;;;;1.98;1.77;;;281.60;2278.40;;;;;;5048821;28;20029;-85
2023/11/12 15:48:06;;;;;;;2.75;1.42;;;281.60;2278.40;;;;;;5047721;28;20036;-87
2023/11/12 15:50:32;;;;;;;1.50;1.10;;;281.60;2278.40;;;;;;5048002;28;20052;-85
2023/11/12 15:53:02;;;;;;;1.63;1.08;;;281.60;2278.40;;;;;;5048687;28;20059;-83
2023/11/12 15:55:28;;;;;;;1.88;1.08;;;281.60;2278.40;;;;;;5048562;28;20484;-86
2023/11/12 15:57:54;;;;;;;2.20;1.17;;;281.70;2278.40;;;;;;5049894;28;20031;-86
2023/11/12 16:00:21;;;;;;;3.28;2.25;;;281.60;2278.40;;;;;;5084251;28;20054;-87
2023/11/12 16:02:48;;;;;;;1.58;1.17;;;281.60;2278.40;;;;;;5102348;28;20085;-87
2023/11/12 16:05:14;;;;;;;1.17;0.90;;;281.70;2278.40;;;;;;5104719;28;20118;-85
2023/11/12 16:07:43;;;;;;;2.30;1.48;;;281.60;2278.40;;;;;;5103595;28;20052;-87
2023/11/12 16:10:14;;;;;;;2.10;1.48;;;256.90;2252.80;;;;;;5087119;28;20052;-86
2023/11/12 16:12:41;;;;;;;1.92;1.38;;;281.60;2278.40;;;;;;5105092;28;20035;-87
2023/11/12 16:15:11;;;;;;;2.45;1.52;;;281.60;2278.40;;;;;;5065156;28;20040;-86
2023/11/12 16:17:39;;;;;;;1.58;1.17;;;281.60;2278.40;;;;;;5069274;28;20032;-88
2023/11/12 16:20:15;;;;;;;2.67;1.85;;;281.60;2278.40;;;;;;5070497;28;20032;-89
2023/11/12 16:22:44;;;;;;;4.43;1.95;;;281.60;2278.40;;;;;;5030250;28;20144;-86
2023/11/12 16:25:20;;;;;;;3.75;1.63;;;281.60;2278.40;;;;;;5028957;28;20040;-87
2023/11/12 16:27:51;;;;;;;7.35;1.55;;;281.60;2278.40;;;;;;5013323;28;20165;-87
2023/11/12 16:30:20;;;;;;;2.58;1.70;;;256.90;2252.80;;;;;;5012967;28;20116;-86
2023/11/12 16:32:59;;;;;;;1.63;1.45;;;281.70;2278.40;;;;;;5027862;28;20089;-86
2023/11/12 16:35:26;;;;;;;2.40;1.75;;;281.60;2278.40;;;;;;5030028;28;20057;-86
2023/11/12 16:38:07;;;;;;;1.70;1.05;;;281.60;2278.40;;;;;;5030167;28;20033;-87
2023/11/12 16:40:36;;;;;;;2.45;1.42;;;256.40;2252.80;;;;;;5003374;28;20080;-87
2023/11/12 16:43:09;;;;;;;1.30;1.13;;;256.90;2252.80;;;;;;5029551;28;20053;-89
2023/11/12 16:45:36;;;;;;;2.63;1.90;;;256.80;2252.80;;;;;;5039499;28;20059;-86
2023/11/12 16:48:07;;;;;;;3.10;1.58;;;256.70;2252.80;;;;;;5039319;28;20034;-88
2023/11/12 16:50:33;;;;;;;1.98;1.58;;;256.70;2252.80;;;;;;5045699;28;20075;-87
2023/11/12 16:53:01;;;;;;;6.80;1.50;;;256.60;2252.80;;;;;;5045269;28;20117;-88
2023/11/12 16:55:28;;;;;;;1.67;1.00;;;256.50;2252.80;;;;;;5045099;28;20029;-88
2023/11/12 16:57:54;;;;;;;2.00;1.30;;;256.60;2252.80;;;;;;5045326;28;20026;-87
2023/11/12 17:00:22;;;;;;;1.45;1.13;;;256.50;2252.80;;;;;;5069093;28;20058;-87
2023/11/12 17:02:49;;;;;;;1.60;1.00;;;256.50;2252.80;;;;;;5067427;28;20074;-87
2023/11/12 17:05:22;;;;;;;1.20;1.00;;;256.60;2252.80;;;;;;5088054;28;20024;-89
2023/11/12 17:08:08;;;;;;;0.82;0.77;;;256.50;2252.80;;;;;;5061357;28;20029;-89
2023/11/12 17:10:59;;;;;;;1.58;1.35;;;256.60;2252.80;;;;;;5087076;28;20029;-88
2023/11/12 17:13:45;;;;;;;;;;;256.60;2252.80;;;;;;5037906;28;20037;-87
2023/11/12 18:00:34;;;;;;;2.10;1.27;;;256.50;2252.80;;;;;;6101334;22;22077;-91
2023/11/12 18:03:21;;;;;;;3.17;1.30;;;256.60;2252.80;;;;;;5037877;28;20052;-91
2023/11/12 18:06:52;;;;;;;2.05;1.50;;;256.60;2252.80;;;;;;5014341;28;20034;-91
2023/11/12 19:00:36;;;;;;;1.40;1.17;;;256.50;2252.80;;;;;;4976853;29;20100;-89
2023/11/12 19:03:52;;;;;;;1.38;1.02;;;256.20;2252.80;;;;;;4946816;29;20050;-90
2023/11/12 19:06:24;;;;;;;2.72;1.75;;;256.30;2252.80;;;;;;4946570;29;20063;-89
2023/11/12 19:09:55;;;;;;;2.17;1.67;;;256.40;2252.80;;;;;;4962991;29;20031;-90
2023/11/12 19:12:43;;;;;;;2.63;1.70;;;256.30;2252.80;;;;;;4944248;29;20054;-88
2023/11/12 19:19:09;;;;;;;1.92;1.65;;;256.20;2252.80;;;;;;4919448;29;20035;-90
2023/11/12 19:22:39;;;;;;;2.50;1.30;;;256.20;2252.80;;;;;;4902635;29;20056;-91
2023/11/12 19:25:29;;;;;;;;;;;256.10;2252.80;;;;;;4901723;29;20040;-89
2023/11/12 19:28:57;;;;;;;1.08;0.82;;;256.10;2252.80;;;;;;4832191;29;19962;-90
2023/11/12 19:32:04;;;;;;;1.00;0.80;;;256.00;2252.80;;;;;;4807439;30;20057;-90
2023/11/12 19:35:13;;;;;;;1.35;0.98;;;256.10;2252.80;;;;;;4795441;30;20192;-90
2023/11/12 19:38:08;;;;;;;;;;;;;;;;;;;;;
2023/11/12 19:41:26;;;;;;;;;;;;;;;;;;;;;
2023/11/12 19:44:28;;;;;;;1.10;0.90;;;231.30;2252.80;;;;;;4791311;30;20032;-91
2023/11/12 19:48:09;;;;;;;6.75;1.00;;;256.00;2252.80;;;;;;4808184;29;20039;-91
2023/11/12 20:13:13;;;;;;;1.67;1.15;;;231.00;2252.80;;;;;;4824545;29;20054;-89
2023/11/12 20:16:57;;;;;;;2.15;0.90;;;231.00;2252.80;;;;;;4824853;29;20035;-89
2023/11/12 20:19:43;;;;;;;1.50;1.25;;;231.10;2252.80;;;;;;4748149;30;20105;-87
2023/11/12 20:22:57;;;;;;;4.30;1.60;;;231.10;2252.80;;;;;;4719225;30;20048;-88
2023/11/12 20:26:17;;;;;;;1.70;1.13;;;231.20;2252.80;;;;;;4718027;30;20493;-89
2023/11/12 20:32:50;;;;;;;1.80;1.25;;;231.10;2252.80;;;;;;4680949;30;20077;-89
2023/11/12 20:36:10;;;;;;;2.85;1.98;;;231.00;2252.80;;;;;;4679598;30;20039;-86
2023/11/12 20:39:20;;;;;;;0.88;0.75;;;230.90;2252.80;;;;;;4634222;30;20551;-87
2023/11/12 20:45:28;;;;;;;1.25;1.00;;;230.90;2252.80;;;;;;4678350;30;20049;-88
2023/11/12 20:48:04;;;;;;;1.17;0.82;;;230.80;2252.80;;;;;;4642779;30;20107;-83
2023/11/12 20:50:34;;;;;;;2.42;0.90;;;230.90;2252.80;;;;;;4597335;31;20434;-87
2023/11/12 21:00:16;;;;;;;1.75;1.15;;;230.80;2252.80;;;;;;4901733;29;20044;-91
2023/11/12 21:03:04;;;;;;;3.28;0.93;;;230.70;2252.80;;;;;;4823410;29;20049;-85
2023/11/12 21:05:46;;;;;;;1.35;0.98;;;230.80;2252.80;;;;;;4808518;29;20030;-87
2023/11/12 21:08:24;;;;;;;1.38;1.17;;;230.80;2252.80;;;;;;4790866;29;20035;-88
2023/11/12 21:10:54;;;;;;;1.00;0.80;;;230.80;2252.80;;;;;;4808929;29;20039;-86
2023/11/12 21:13:33;;;;;;;2.42;2.03;;;230.80;2252.80;;;;;;4801673;29;20043;-87
2023/11/12 21:16:01;;;;;;;1.90;1.10;;;230.70;2252.80;;;;;;4791291;30;20110;-83
2023/11/12 21:18:27;;;;;;;3.05;2.47;;;;;;;;;;4805503;29;20115;-82
2023/11/12 21:20:59;;;;;;;1.38;0.98;;;;;;;;;;4802204;29;20063;-85
2023/11/12 21:23:38;;;;;;;1.27;1.00;;;;;;;;;;4823344;29;20039;-87
2023/11/12 21:26:46;;;;;;;2.08;1.33;;;230.60;2252.80;;;;;;4790792;30;20547;-89
2023/11/12 21:29:47;;;;;;;1.98;1.23;;;230.50;2252.80;;;;;;4788526;30;20074;-89
2023/11/12 21:32:57;;;;;;;1.60;1.50;;;230.50;2252.80;;;;;;5058471;23;20035;-87
2023/11/12 21:35:35;;;;;;;4.55;1.20;;;230.50;2252.80;;;;;;4945960;28;20047;-91
2023/11/12 21:44:36;;;;;;;2.95;1.77;;;230.50;2252.80;;;;;;5006682;28;20060;-87
2023/11/12 21:50:26;;;;;;;3.42;1.83;;;230.40;2252.80;;;;;;5009591;28;20036;-85
2023/11/12 21:53:13;;;;;;;1.95;1.20;;;230.50;2252.80;;;;;;4991697;28;20061;-89
2023/11/12 21:59:08;;;;;;;16.30;2.53;;;230.50;2252.80;;;;;;5013718;28;20132;-87
2023/11/12 22:01:35;;;;;;;4.40;1.33;;;230.60;2252.80;;;;;;4964685;28;20047;-83
2023/11/12 22:04:01;;;;;;;3.25;1.65;;;230.50;2252.80;;;;;;4980546;28;20150;-82
2023/11/12 22:06:27;;;;;;;3.00;2.05;;;230.60;2252.80;;;;;;4992502;28;20022;-83
2023/11/12 22:08:55;;;;;;;2.25;1.20;;;230.60;2252.80;;;;;;4989978;28;20057;-82
2023/11/12 22:11:20;;;;;;;2.05;1.35;;;230.60;2252.80;;;;;;4985638;28;20042;-85
2023/11/12 22:13:46;;;;;;;1.92;1.42;;;230.60;2252.80;;;;;;4986878;28;20062;-82
2023/11/12 22:16:12;;;;;;;3.22;1.38;;;230.60;2252.80;;;;;;4985890;28;20034;-82
2023/11/12 22:18:38;;;;;;;1.80;1.40;;;230.50;2252.80;;;;;;4985000;28;20093;-84
2023/11/12 22:21:06;;;;;;;2.10;1.30;;;230.50;2252.80;;;;;;4996450;28;20038;-84
2023/11/12 22:23:32;;;;;;;2.35;1.70;;;230.50;2252.80;;;;;;4987063;28;20034;-81
2023/11/12 22:25:58;;;;;;;1.92;1.70;;;230.40;2252.80;;;;;;4987633;28;20034;-82
2023/11/12 22:28:23;;;;;;;2.80;1.88;;;230.40;2252.80;;;;;;4985292;28;20448;-86
2023/11/12 22:30:49;;;;;;;2.13;1.17;;;230.50;2252.80;;;;;;4992238;28;20033;-86
2023/11/12 22:33:15;;;;;;;2.47;1.25;;;230.60;2252.80;;;;;;5008559;28;20029;-83
2023/11/12 22:35:41;;;;;;;1.58;1.10;;;230.60;2252.80;;;;;;4992676;28;20385;-83
2023/11/12 22:38:06;;;;;;;1.33;1.20;;;230.60;2252.80;;;;;;4989923;28;20033;-84
2023/11/12 22:40:32;;;;;;;2.33;1.42;;;230.70;2252.80;;;;;;4989767;28;20050;-84
2023/11/12 22:42:58;;;;;;;1.50;1.38;;;230.70;2252.80;;;;;;4987596;28;20055;-82
2023/11/12 22:45:24;;;;;;;2.10;1.90;;;205.70;2252.80;;;;;;4969903;28;20081;-84
2023/11/12 22:47:50;;;;;;;1.38;1.00;;;205.60;2252.80;;;;;;4969380;28;20121;-81
2023/11/12 22:50:17;;;;;;;1.40;0.95;;;230.70;2252.80;;;;;;4954161;28;20030;-85
2023/11/12 22:52:43;;;;;;;1.38;1.05;;;205.70;2252.80;;;;;;4969816;28;20023;-81
2023/11/12 22:55:09;;;;;;;2.22;1.52;;;205.70;2252.80;;;;;;4947057;29;20051;-82
2023/11/12 22:57:35;;;;;;;3.72;1.88;;;205.70;2252.80;;;;;;4931799;29;20491;-86
2023/11/12 23:00:14;;;;;;;3.03;2.05;;;205.70;2252.80;;;;;;4941059;29;20086;-85
2023/11/12 23:02:43;;;;;;;1.77;1.48;;;256.40;2252.80;;;;;;4950258;29;20028;-85
2023/11/12 23:05:12;;;;;;;3.55;1.60;;;230.40;2252.80;;;;;;4950732;29;20060;-85
2023/11/12 23:07:39;;;;;;;7.00;1.27;;;205.70;2252.80;;;;;;4949618;29;20019;-83
2023/11/12 23:10:06;;;;;;;1.30;1.00;;;179.70;2252.80;;;;;;4937083;29;20047;-83
2023/11/12 23:12:34;;;;;;;3.05;1.77;;;205.60;2252.80;;;;;;4932782;29;20024;-84
2023/11/12 23:15:45;;;;;;;1.67;1.13;;;230.90;2252.80;;;;;;4932708;29;20047;-84
2023/11/12 23:18:13;;;;;;;2.25;1.25;;;230.40;2252.80;;;;;;4951010;29;20035;-87
2023/11/12 23:21:40;;;;;;;8.57;2.28;;;230.40;2252.80;;;;;;4970602;29;20031;-88
2023/11/12 23:28:38;;;;;;;1.10;0.90;;;205.70;2252.80;;;;;;4877016;29;20499;-86
2023/11/12 23:31:22;;;;;;;1.60;1.08;;;205.70;2252.80;;;;;;4873904;29;20072;-86
2023/11/12 23:34:25;;;;;;;0.80;0.70;;;205.70;2252.80;;;;;;4874856;29;20030;-86
2023/11/12 23:37:09;;;;;;;3.05;1.27;;;230.50;2252.80;;;;;;4836934;29;20038;-89
2023/11/12 23:39:42;;;;;;;4.25;0.95;;;230.50;2252.80;;;;;;4836876;29;20034;-85
2023/11/12 23:56:39;;;;;;;0.90;0.80;;;205.20;2252.80;;;;;;4875253;29;20053;-88
2023/11/12 23:59:31;;;;;;;1.48;1.30;;;205.10;2252.80;;;;;;4840201;29;20054;-89
